sensor_id;sensor_type;location;lat;lon;timestamp;P1;durP1;ratioP1;P2;durP2;ratioP2
2267;SDS011;11052;43.338;25.502;2023-04-01T00:01:25;1.13;;;1.03;;
2267;SDS011;11052;43.338;25.502;2023-04-01T00:03:53;1.57;;;1.47;;
2267;SDS011;11052;43.338;25.502;2023-04-01T00:06:21;1.20;;;1.10;;
2267;SDS011;11052;43.338;25.502;2023-04-01T00:08:48;0.90;;;0.80;;
2267;SDS011;11052;43.338;25.502;2023-04-01T00:11:16;1.57;;;1.40;;
2267;SDS011;11052;43.338;25.502;2023-04-01T00:13:43;1.10;;;0.80;;
2267;SDS011;11052;43.338;25.502;2023-04-01T00:16:12;2.90;;;1.40;;
2267;SDS011;11052;43.338;25.502;2023-04-01T00:18:39;1.70;;;1.60;;
2267;SDS011;11052;43.338;25.502;2023-04-01T00:21:07;1.00;;;0.70;;
2267;SDS011;11052;43.338;25.502;2023-04-01T00:23:34;0.80;;;0.67;;
2267;SDS011;11052;43.338;25.502;2023-04-01T00:26:01;1.43;;;1.33;;
2267;SDS011;11052;43.338;25.502;2023-04-01T00:28:30;6.30;;;1.90;;
2267;SDS011;11052;43.338;25.502;2023-04-01T00:31:03;1.00;;;0.80;;
2267;SDS011;11052;43.338;25.502;2023-04-01T00:33:32;1.30;;;1.13;;
2267;SDS011;11052;43.338;25.502;2023-04-01T00:36:05;0.93;;;0.83;;
2267;SDS011;11052;43.338;25.502;2023-04-01T00:38:33;5.97;;;1.67;;
2267;SDS011;11052;43.338;25.502;2023-04-01T00:41:01;1.00;;;0.90;;
2267;SDS011;11052;43.338;25.502;2023-04-01T00:43:28;1.70;;;1.60;;
2267;SDS011;11052;43.338;25.502;2023-04-01T00:45:55;0.80;;;0.60;;
2267;SDS011;11052;43.338;25.502;2023-04-01T00:48:23;2.20;;;1.53;;
2267;SDS011;11052;43.338;25.502;2023-04-01T00:50:58;2.13;;;1.93;;
2267;SDS011;11052;43.338;25.502;2023-04-01T00:53:28;1.10;;;1.00;;
2267;SDS011;11052;43.338;25.502;2023-04-01T00:55:59;1.60;;;1.10;;
2267;SDS011;11052;43.338;25.502;2023-04-01T00:58:29;2.47;;;1.63;;
2267;SDS011;11052;43.338;25.502;2023-04-01T01:00:59;2.83;;;1.47;;
2267;SDS011;11052;43.338;25.502;2023-04-01T01:03:27;0.90;;;0.73;;
2267;SDS011;11052;43.338;25.502;2023-04-01T01:06:03;2.13;;;1.53;;
2267;SDS011;11052;43.338;25.502;2023-04-01T01:08:52;1.13;;;1.03;;
2267;SDS011;11052;43.338;25.502;2023-04-01T01:11:34;4.70;;;1.97;;
2267;SDS011;11052;43.338;25.502;2023-04-01T01:14:06;1.67;;;1.40;;
2267;SDS011;11052;43.338;25.502;2023-04-01T01:16:46;1.80;;;1.60;;
2267;SDS011;11052;43.338;25.502;2023-04-01T01:19:24;1.00;;;0.90;;
2267;SDS011;11052;43.338;25.502;2023-04-01T01:22:07;5.23;;;2.50;;
2267;SDS011;11052;43.338;25.502;2023-04-01T01:24:50;3.83;;;1.43;;
2267;SDS011;11052;43.338;25.502;2023-04-01T01:27:27;3.70;;;1.67;;
2267;SDS011;11052;43.338;25.502;2023-04-01T01:33:07;1.07;;;0.97;;
2267;SDS011;11052;43.338;25.502;2023-04-01T01:35:47;0.80;;;0.60;;
2267;SDS011;11052;43.338;25.502;2023-04-01T01:38:16;0.80;;;0.50;;
2267;SDS011;11052;43.338;25.502;2023-04-01T01:40:48;1.17;;;1.07;;
2267;SDS011;11052;43.338;25.502;2023-04-01T01:43:21;1.10;;;1.00;;
2267;SDS011;11052;43.338;25.502;2023-04-01T01:45:50;1.10;;;1.00;;
2267;SDS011;11052;43.338;25.502;2023-04-01T01:48:21;0.90;;;0.80;;
2267;SDS011;11052;43.338;25.502;2023-04-01T01:50:51;1.00;;;0.90;;
2267;SDS011;11052;43.338;25.502;2023-04-01T01:53:19;1.30;;;1.20;;
2267;SDS011;11052;43.338;25.502;2023-04-01T01:55:47;0.90;;;0.70;;
2267;SDS011;11052;43.338;25.502;2023-04-01T01:58:16;0.80;;;0.57;;
2267;SDS011;11052;43.338;25.502;2023-04-01T02:00:48;1.27;;;1.17;;
2267;SDS011;11052;43.338;25.502;2023-04-01T02:03:20;1.00;;;0.77;;
2267;SDS011;11052;43.338;25.502;2023-04-01T02:05:49;0.87;;;0.73;;
2267;SDS011;11052;43.338;25.502;2023-04-01T02:08:21;0.90;;;0.67;;
2267;SDS011;11052;43.338;25.502;2023-04-01T02:10:54;2.97;;;1.47;;
2267;SDS011;11052;43.338;25.502;2023-04-01T02:13:25;1.20;;;1.10;;
2267;SDS011;11052;43.338;25.502;2023-04-01T02:15:59;3.07;;;1.90;;
2267;SDS011;11052;43.338;25.502;2023-04-01T02:18:30;1.13;;;0.70;;
2267;SDS011;11052;43.338;25.502;2023-04-01T02:21:01;1.20;;;0.97;;
2267;SDS011;11052;43.338;25.502;2023-04-01T02:23:31;1.20;;;1.10;;
2267;SDS011;11052;43.338;25.502;2023-04-01T02:26:02;10.27;;;1.67;;
2267;SDS011;11052;43.338;25.502;2023-04-01T02:28:33;0.90;;;0.70;;
2267;SDS011;11052;43.338;25.502;2023-04-01T02:31:03;1.43;;;1.20;;
2267;SDS011;11052;43.338;25.502;2023-04-01T02:33:30;2.40;;;1.10;;
2267;SDS011;11052;43.338;25.502;2023-04-01T02:35:58;10.00;;;1.47;;
2267;SDS011;11052;43.338;25.502;2023-04-01T02:38:27;0.90;;;0.80;;
2267;SDS011;11052;43.338;25.502;2023-04-01T02:40:56;1.27;;;1.17;;
2267;SDS011;11052;43.338;25.502;2023-04-01T02:43:25;1.63;;;1.40;;
2267;SDS011;11052;43.338;25.502;2023-04-01T02:45:52;1.97;;;1.73;;
2267;SDS011;11052;43.338;25.502;2023-04-01T02:48:20;1.60;;;1.10;;
2267;SDS011;11052;43.338;25.502;2023-04-01T02:50:47;1.27;;;0.90;;
2267;SDS011;11052;43.338;25.502;2023-04-01T02:53:15;1.33;;;1.23;;
2267;SDS011;11052;43.338;25.502;2023-04-01T02:55:44;1.47;;;1.37;;
2267;SDS011;11052;43.338;25.502;2023-04-01T02:58:11;1.17;;;1.00;;
2267;SDS011;11052;43.338;25.502;2023-04-01T03:00:38;1.10;;;1.00;;
2267;SDS011;11052;43.338;25.502;2023-04-01T03:03:05;0.90;;;0.70;;
2267;SDS011;11052;43.338;25.502;2023-04-01T03:05:32;1.40;;;1.27;;
2267;SDS011;11052;43.338;25.502;2023-04-01T03:08:00;3.80;;;1.87;;
2267;SDS011;11052;43.338;25.502;2023-04-01T03:10:27;2.43;;;2.17;;
2267;SDS011;11052;43.338;25.502;2023-04-01T03:12:56;2.17;;;1.43;;
2267;SDS011;11052;43.338;25.502;2023-04-01T03:15:23;1.93;;;1.00;;
2267;SDS011;11052;43.338;25.502;2023-04-01T03:17:50;1.77;;;1.20;;
2267;SDS011;11052;43.338;25.502;2023-04-01T03:20:17;0.80;;;0.73;;
2267;SDS011;11052;43.338;25.502;2023-04-01T03:22:45;1.93;;;1.33;;
2267;SDS011;11052;43.338;25.502;2023-04-01T03:25:12;1.30;;;1.13;;
2267;SDS011;11052;43.338;25.502;2023-04-01T03:27:39;1.60;;;1.50;;
2267;SDS011;11052;43.338;25.502;2023-04-01T03:30:08;1.30;;;0.97;;
2267;SDS011;11052;43.338;25.502;2023-04-01T03:32:36;1.57;;;1.47;;
2267;SDS011;11052;43.338;25.502;2023-04-01T03:35:03;1.57;;;1.47;;
2267;SDS011;11052;43.338;25.502;2023-04-01T03:37:31;4.27;;;2.00;;
2267;SDS011;11052;43.338;25.502;2023-04-01T03:39:58;1.07;;;0.77;;
2267;SDS011;11052;43.338;25.502;2023-04-01T03:42:25;1.27;;;1.07;;
2267;SDS011;11052;43.338;25.502;2023-04-01T03:44:52;1.83;;;1.17;;
2267;SDS011;11052;43.338;25.502;2023-04-01T03:47:21;1.30;;;1.07;;
2267;SDS011;11052;43.338;25.502;2023-04-01T03:49:48;1.63;;;1.17;;
2267;SDS011;11052;43.338;25.502;2023-04-01T03:52:15;1.53;;;1.43;;
2267;SDS011;11052;43.338;25.502;2023-04-01T03:54:42;0.90;;;0.73;;
2267;SDS011;11052;43.338;25.502;2023-04-01T03:57:09;0.90;;;0.70;;
2267;SDS011;11052;43.338;25.502;2023-04-01T03:59:36;0.90;;;0.80;;
2267;SDS011;11052;43.338;25.502;2023-04-01T04:02:03;1.57;;;1.47;;
2267;SDS011;11052;43.338;25.502;2023-04-01T04:04:32;1.00;;;0.70;;
2267;SDS011;11052;43.338;25.502;2023-04-01T04:07:00;2.13;;;1.93;;
2267;SDS011;11052;43.338;25.502;2023-04-01T04:09:27;0.83;;;0.60;;
2267;SDS011;11052;43.338;25.502;2023-04-01T04:11:56;1.13;;;1.03;;
2267;SDS011;11052;43.338;25.502;2023-04-01T04:14:23;1.10;;;1.00;;
2267;SDS011;11052;43.338;25.502;2023-04-01T04:16:50;2.20;;;1.33;;
2267;SDS011;11052;43.338;25.502;2023-04-01T04:19:17;0.93;;;0.83;;
2267;SDS011;11052;43.338;25.502;2023-04-01T04:21:46;1.13;;;1.00;;
2267;SDS011;11052;43.338;25.502;2023-04-01T04:24:13;1.27;;;1.17;;
2267;SDS011;11052;43.338;25.502;2023-04-01T04:26:40;1.43;;;1.00;;
2267;SDS011;11052;43.338;25.502;2023-04-01T04:29:07;1.43;;;1.33;;
2267;SDS011;11052;43.338;25.502;2023-04-01T04:31:34;1.00;;;0.90;;
2267;SDS011;11052;43.338;25.502;2023-04-01T04:34:01;1.20;;;0.90;;
2267;SDS011;11052;43.338;25.502;2023-04-01T04:36:28;1.27;;;1.17;;
2267;SDS011;11052;43.338;25.502;2023-04-01T04:38:57;26.63;;;1.97;;
2267;SDS011;11052;43.338;25.502;2023-04-01T04:41:27;1.07;;;0.77;;
2267;SDS011;11052;43.338;25.502;2023-04-01T04:43:54;3.47;;;1.47;;
2267;SDS011;11052;43.338;25.502;2023-04-01T04:46:24;2.40;;;1.53;;
2267;SDS011;11052;43.338;25.502;2023-04-01T04:48:51;6.17;;;3.10;;
2267;SDS011;11052;43.338;25.502;2023-04-01T04:51:19;2.13;;;1.33;;
2267;SDS011;11052;43.338;25.502;2023-04-01T04:53:46;1.53;;;1.23;;
2267;SDS011;11052;43.338;25.502;2023-04-01T04:56:18;1.57;;;1.47;;
2267;SDS011;11052;43.338;25.502;2023-04-01T04:58:46;0.83;;;0.70;;
2267;SDS011;11052;43.338;25.502;2023-04-01T05:01:15;4.50;;;3.70;;
2267;SDS011;11052;43.338;25.502;2023-04-01T05:03:42;1.90;;;1.80;;
2267;SDS011;11052;43.338;25.502;2023-04-01T05:06:11;3.23;;;2.93;;
2267;SDS011;11052;43.338;25.502;2023-04-01T05:08:39;2.53;;;1.70;;
2267;SDS011;11052;43.338;25.502;2023-04-01T05:11:09;1.60;;;1.20;;
2267;SDS011;11052;43.338;25.502;2023-04-01T05:13:39;2.07;;;1.97;;
2267;SDS011;11052;43.338;25.502;2023-04-01T05:16:07;3.23;;;2.93;;
2267;SDS011;11052;43.338;25.502;2023-04-01T05:18:35;2.77;;;2.53;;
2267;SDS011;11052;43.338;25.502;2023-04-01T05:21:02;2.93;;;1.63;;
2267;SDS011;11052;43.338;25.502;2023-04-01T05:23:30;2.07;;;1.97;;
2267;SDS011;11052;43.338;25.502;2023-04-01T05:25:58;4.03;;;2.57;;
2267;SDS011;11052;43.338;25.502;2023-04-01T05:28:25;3.03;;;2.83;;
2267;SDS011;11052;43.338;25.502;2023-04-01T05:30:54;3.70;;;2.33;;
2267;SDS011;11052;43.338;25.502;2023-04-01T05:33:21;3.50;;;3.20;;
2267;SDS011;11052;43.338;25.502;2023-04-01T05:35:48;3.90;;;3.57;;
2267;SDS011;11052;43.338;25.502;2023-04-01T05:38:15;2.90;;;2.70;;
2267;SDS011;11052;43.338;25.502;2023-04-01T05:40:42;2.80;;;2.60;;
2267;SDS011;11052;43.338;25.502;2023-04-01T05:43:09;5.00;;;3.10;;
2267;SDS011;11052;43.338;25.502;2023-04-01T05:45:37;1.60;;;1.50;;
2267;SDS011;11052;43.338;25.502;2023-04-01T05:48:05;2.23;;;1.80;;
2267;SDS011;11052;43.338;25.502;2023-04-01T05:50:33;3.80;;;1.70;;
2267;SDS011;11052;43.338;25.502;2023-04-01T05:53:00;2.33;;;2.03;;
2267;SDS011;11052;43.338;25.502;2023-04-01T05:55:27;5.03;;;4.10;;
2267;SDS011;11052;43.338;25.502;2023-04-01T05:57:54;7.53;;;2.57;;
2267;SDS011;11052;43.338;25.502;2023-04-01T06:00:21;4.70;;;4.17;;
2267;SDS011;11052;43.338;25.502;2023-04-01T06:02:48;6.73;;;5.03;;
2267;SDS011;11052;43.338;25.502;2023-04-01T06:05:19;4.43;;;3.97;;
2267;SDS011;11052;43.338;25.502;2023-04-01T06:07:48;6.60;;;4.57;;
2267;SDS011;11052;43.338;25.502;2023-04-01T06:10:18;4.63;;;3.80;;
2267;SDS011;11052;43.338;25.502;2023-04-01T06:12:50;3.80;;;2.50;;
2267;SDS011;11052;43.338;25.502;2023-04-01T06:15:25;3.90;;;3.50;;
2267;SDS011;11052;43.338;25.502;2023-04-01T06:21:10;9.27;;;4.10;;
2267;SDS011;11052;43.338;25.502;2023-04-01T06:24:00;2.50;;;2.30;;
2267;SDS011;11052;43.338;25.502;2023-04-01T06:26:39;7.30;;;4.27;;
2267;SDS011;11052;43.338;25.502;2023-04-01T06:29:25;6.00;;;4.97;;
2267;SDS011;11052;43.338;25.502;2023-04-01T06:32:12;9.90;;;6.43;;
2267;SDS011;11052;43.338;25.502;2023-04-01T06:34:55;7.63;;;5.60;;
2267;SDS011;11052;43.338;25.502;2023-04-01T06:37:48;9.27;;;6.70;;
2267;SDS011;11052;43.338;25.502;2023-04-01T06:40:37;6.23;;;5.70;;
2267;SDS011;11052;43.338;25.502;2023-04-01T06:43:21;7.27;;;6.53;;
2267;SDS011;11052;43.338;25.502;2023-04-01T06:45:59;5.20;;;4.70;;
2267;SDS011;11052;43.338;25.502;2023-04-01T06:48:41;5.90;;;5.20;;
2267;SDS011;11052;43.338;25.502;2023-04-01T06:51:22;9.43;;;7.07;;
2267;SDS011;11052;43.338;25.502;2023-04-01T06:54:03;12.73;;;8.00;;
2267;SDS011;11052;43.338;25.502;2023-04-01T06:56:35;8.23;;;6.70;;
2267;SDS011;11052;43.338;25.502;2023-04-01T06:59:07;10.80;;;2.90;;
2267;SDS011;11052;43.338;25.502;2023-04-01T07:01:39;5.97;;;4.23;;
2267;SDS011;11052;43.338;25.502;2023-04-01T07:04:10;5.90;;;3.93;;
2267;SDS011;11052;43.338;25.502;2023-04-01T07:06:42;4.13;;;3.40;;
2267;SDS011;11052;43.338;25.502;2023-04-01T07:09:16;5.80;;;3.63;;
2267;SDS011;11052;43.338;25.502;2023-04-01T07:11:46;5.13;;;4.67;;
2267;SDS011;11052;43.338;25.502;2023-04-01T07:14:16;4.40;;;3.53;;
2267;SDS011;11052;43.338;25.502;2023-04-01T07:16:49;5.27;;;4.87;;
2267;SDS011;11052;43.338;25.502;2023-04-01T07:19:22;8.23;;;5.07;;
2267;SDS011;11052;43.338;25.502;2023-04-01T07:21:56;11.33;;;3.23;;
2267;SDS011;11052;43.338;25.502;2023-04-01T07:24:29;1.83;;;1.73;;
2267;SDS011;11052;43.338;25.502;2023-04-01T07:27:00;7.30;;;3.37;;
2267;SDS011;11052;43.338;25.502;2023-04-01T07:29:27;3.70;;;2.70;;
2267;SDS011;11052;43.338;25.502;2023-04-01T07:31:59;3.67;;;2.30;;
2267;SDS011;11052;43.338;25.502;2023-04-01T07:34:51;2.60;;;2.07;;
2267;SDS011;11052;43.338;25.502;2023-04-01T07:37:28;8.30;;;2.90;;
2267;SDS011;11052;43.338;25.502;2023-04-01T07:40:05;1.93;;;1.77;;
2267;SDS011;11052;43.338;25.502;2023-04-01T07:42:47;2.63;;;1.70;;
2267;SDS011;11052;43.338;25.502;2023-04-01T07:45:29;2.33;;;1.70;;
2267;SDS011;11052;43.338;25.502;2023-04-01T07:48:04;2.30;;;1.33;;
2267;SDS011;11052;43.338;25.502;2023-04-01T07:50:41;2.60;;;2.07;;
2267;SDS011;11052;43.338;25.502;2023-04-01T07:53:18;2.60;;;2.40;;
2267;SDS011;11052;43.338;25.502;2023-04-01T07:55:54;5.97;;;4.17;;
2267;SDS011;11052;43.338;25.502;2023-04-01T07:58:29;4.50;;;3.60;;
2267;SDS011;11052;43.338;25.502;2023-04-01T08:01:04;3.60;;;3.30;;
2267;SDS011;11052;43.338;25.502;2023-04-01T08:03:42;2.60;;;2.07;;
2267;SDS011;11052;43.338;25.502;2023-04-01T08:06:27;10.33;;;5.40;;
2267;SDS011;11052;43.338;25.502;2023-04-01T08:09:00;3.80;;;2.60;;
2267;SDS011;11052;43.338;25.502;2023-04-01T08:11:39;1.83;;;1.07;;
2267;SDS011;11052;43.338;25.502;2023-04-01T08:14:16;2.30;;;2.10;;
2267;SDS011;11052;43.338;25.502;2023-04-01T08:16:52;2.87;;;1.80;;
2267;SDS011;11052;43.338;25.502;2023-04-01T08:19:29;2.60;;;1.53;;
2267;SDS011;11052;43.338;25.502;2023-04-01T08:22:07;0.90;;;0.80;;
2267;SDS011;11052;43.338;25.502;2023-04-01T08:24:39;4.80;;;1.43;;
2267;SDS011;11052;43.338;25.502;2023-04-01T08:27:11;2.73;;;1.57;;
2267;SDS011;11052;43.338;25.502;2023-04-01T08:29:46;1.10;;;1.00;;
2267;SDS011;11052;43.338;25.502;2023-04-01T08:32:18;1.40;;;1.30;;
2267;SDS011;11052;43.338;25.502;2023-04-01T08:34:50;1.50;;;1.27;;
2267;SDS011;11052;43.338;25.502;2023-04-01T08:37:34;1.43;;;1.10;;
2267;SDS011;11052;43.338;25.502;2023-04-01T08:40:13;2.13;;;1.93;;
2267;SDS011;11052;43.338;25.502;2023-04-01T08:43:00;1.10;;;0.93;;
2267;SDS011;11052;43.338;25.502;2023-04-01T08:45:41;2.03;;;0.83;;
2267;SDS011;11052;43.338;25.502;2023-04-01T08:48:23;3.63;;;1.57;;
2267;SDS011;11052;43.338;25.502;2023-04-01T08:51:11;1.00;;;0.90;;
2267;SDS011;11052;43.338;25.502;2023-04-01T08:53:50;9.67;;;2.37;;
2267;SDS011;11052;43.338;25.502;2023-04-01T08:56:39;1.30;;;0.90;;
2267;SDS011;11052;43.338;25.502;2023-04-01T08:59:21;2.40;;;1.03;;
2267;SDS011;11052;43.338;25.502;2023-04-01T09:05:19;2.20;;;1.20;;
2267;SDS011;11052;43.338;25.502;2023-04-01T09:08:07;2.50;;;1.80;;
2267;SDS011;11052;43.338;25.502;2023-04-01T09:10:59;1.30;;;0.70;;
2267;SDS011;11052;43.338;25.502;2023-04-01T09:13:42;4.00;;;1.87;;
2267;SDS011;11052;43.338;25.502;2023-04-01T09:16:40;1.57;;;1.00;;
2267;SDS011;11052;43.338;25.502;2023-04-01T09:19:21;0.90;;;0.60;;
2267;SDS011;11052;43.338;25.502;2023-04-01T09:22:04;1.30;;;0.87;;
2267;SDS011;11052;43.338;25.502;2023-04-01T09:25:01;1.97;;;0.90;;
2267;SDS011;11052;43.338;25.502;2023-04-01T09:27:43;1.10;;;0.90;;
2267;SDS011;11052;43.338;25.502;2023-04-01T09:36:28;1.23;;;0.83;;
2267;SDS011;11052;43.338;25.502;2023-04-01T09:39:13;1.47;;;1.20;;
2267;SDS011;11052;43.338;25.502;2023-04-01T09:41:57;1.30;;;0.90;;
2267;SDS011;11052;43.338;25.502;2023-04-01T09:44:34;1.57;;;0.70;;
2267;SDS011;11052;43.338;25.502;2023-04-01T09:47:08;1.53;;;0.70;;
2267;SDS011;11052;43.338;25.502;2023-04-01T09:49:58;0.90;;;0.60;;
2267;SDS011;11052;43.338;25.502;2023-04-01T09:52:47;1.00;;;0.80;;
2267;SDS011;11052;43.338;25.502;2023-04-01T09:58:45;0.90;;;0.60;;
2267;SDS011;11052;43.338;25.502;2023-04-01T10:01:43;0.93;;;0.60;;
2267;SDS011;11052;43.338;25.502;2023-04-01T10:04:40;2.40;;;1.33;;
2267;SDS011;11052;43.338;25.502;2023-04-01T10:07:38;1.43;;;0.80;;
2267;SDS011;11052;43.338;25.502;2023-04-01T10:16:26;1.97;;;0.87;;
2267;SDS011;11052;43.338;25.502;2023-04-01T10:19:34;1.77;;;0.90;;
2267;SDS011;11052;43.338;25.502;2023-04-01T10:22:24;0.80;;;0.47;;
2267;SDS011;11052;43.338;25.502;2023-04-01T10:25:18;1.00;;;0.70;;
2267;SDS011;11052;43.338;25.502;2023-04-01T10:28:08;0.80;;;0.60;;
2267;SDS011;11052;43.338;25.502;2023-04-01T10:31:01;1.27;;;0.60;;
2267;SDS011;11052;43.338;25.502;2023-04-01T10:37:08;0.80;;;0.40;;
2267;SDS011;11052;43.338;25.502;2023-04-01T10:43:04;0.90;;;0.70;;
2267;SDS011;11052;43.338;25.502;2023-04-01T10:49:33;0.90;;;0.63;;
2267;SDS011;11052;43.338;25.502;2023-04-01T10:55:35;1.00;;;0.80;;
2267;SDS011;11052;43.338;25.502;2023-04-01T10:58:25;4.10;;;0.70;;
2267;SDS011;11052;43.338;25.502;2023-04-01T11:01:09;2.73;;;1.03;;
2267;SDS011;11052;43.338;25.502;2023-04-01T11:13:58;2.23;;;1.57;;
2267;SDS011;11052;43.338;25.502;2023-04-01T11:16:52;3.10;;;1.90;;
2267;SDS011;11052;43.338;25.502;2023-04-01T11:23:01;1.20;;;0.77;;
2267;SDS011;11052;43.338;25.502;2023-04-01T11:25:43;1.17;;;0.87;;
2267;SDS011;11052;43.338;25.502;2023-04-01T11:28:37;0.93;;;0.70;;
2267;SDS011;11052;43.338;25.502;2023-04-01T11:31:26;1.10;;;0.90;;
2267;SDS011;11052;43.338;25.502;2023-04-01T11:34:04;1.10;;;0.70;;
2267;SDS011;11052;43.338;25.502;2023-04-01T11:36:41;1.10;;;0.90;;
2267;SDS011;11052;43.338;25.502;2023-04-01T11:39:24;2.83;;;2.00;;
2267;SDS011;11052;43.338;25.502;2023-04-01T11:42:03;1.30;;;0.90;;
2267;SDS011;11052;43.338;25.502;2023-04-01T11:44:43;2.80;;;1.93;;
2267;SDS011;11052;43.338;25.502;2023-04-01T11:47:27;1.50;;;1.40;;
2267;SDS011;11052;43.338;25.502;2023-04-01T11:50:14;3.07;;;1.47;;
2267;SDS011;11052;43.338;25.502;2023-04-01T11:55:44;2.53;;;1.70;;
2267;SDS011;11052;43.338;25.502;2023-04-01T11:58:32;1.87;;;1.10;;
2267;SDS011;11052;43.338;25.502;2023-04-01T12:01:20;3.47;;;2.00;;
2267;SDS011;11052;43.338;25.502;2023-04-01T12:07:24;2.93;;;1.00;;
2267;SDS011;11052;43.338;25.502;2023-04-01T12:10:05;1.30;;;1.10;;
2267;SDS011;11052;43.338;25.502;2023-04-01T12:12:44;2.27;;;1.00;;
2267;SDS011;11052;43.338;25.502;2023-04-01T12:15:20;0.90;;;0.80;;
2267;SDS011;11052;43.338;25.502;2023-04-01T12:17:56;1.13;;;0.60;;
2267;SDS011;11052;43.338;25.502;2023-04-01T12:20:43;1.00;;;0.70;;
2267;SDS011;11052;43.338;25.502;2023-04-01T12:23:31;2.00;;;1.47;;
2267;SDS011;11052;43.338;25.502;2023-04-01T12:26:19;1.73;;;0.70;;
2267;SDS011;11052;43.338;25.502;2023-04-01T12:29:00;5.80;;;1.00;;
2267;SDS011;11052;43.338;25.502;2023-04-01T12:31:46;0.97;;;0.70;;
2267;SDS011;11052;43.338;25.502;2023-04-01T12:37:18;1.00;;;0.60;;
2267;SDS011;11052;43.338;25.502;2023-04-01T12:42:57;7.27;;;1.87;;
2267;SDS011;11052;43.338;25.502;2023-04-01T12:45:32;2.43;;;1.40;;
2267;SDS011;11052;43.338;25.502;2023-04-01T12:48:04;1.77;;;1.47;;
2267;SDS011;11052;43.338;25.502;2023-04-01T12:50:50;5.97;;;0.97;;
2267;SDS011;11052;43.338;25.502;2023-04-01T12:53:44;0.80;;;0.50;;
2267;SDS011;11052;43.338;25.502;2023-04-01T12:56:29;1.70;;;1.10;;
2267;SDS011;11052;43.338;25.502;2023-04-01T13:02:06;1.83;;;1.00;;
2267;SDS011;11052;43.338;25.502;2023-04-01T13:04:51;17.07;;;2.60;;
2267;SDS011;11052;43.338;25.502;2023-04-01T13:07:34;0.90;;;0.70;;
2267;SDS011;11052;43.338;25.502;2023-04-01T13:10:24;1.40;;;0.80;;
2267;SDS011;11052;43.338;25.502;2023-04-01T13:13:05;1.00;;;0.57;;
2267;SDS011;11052;43.338;25.502;2023-04-01T13:15:52;1.20;;;0.70;;
2267;SDS011;11052;43.338;25.502;2023-04-01T13:18:26;5.73;;;2.10;;
2267;SDS011;11052;43.338;25.502;2023-04-01T13:21:04;1.60;;;0.70;;
2267;SDS011;11052;43.338;25.502;2023-04-01T13:23:44;1.57;;;1.10;;
2267;SDS011;11052;43.338;25.502;2023-04-01T13:26:24;2.40;;;0.70;;
2267;SDS011;11052;43.338;25.502;2023-04-01T13:28:58;2.27;;;0.90;;
2267;SDS011;11052;43.338;25.502;2023-04-01T13:31:44;1.10;;;0.80;;
2267;SDS011;11052;43.338;25.502;2023-04-01T13:34:23;1.07;;;0.97;;
2267;SDS011;11052;43.338;25.502;2023-04-01T13:37:02;0.90;;;0.70;;
2267;SDS011;11052;43.338;25.502;2023-04-01T13:39:42;1.63;;;0.90;;
2267;SDS011;11052;43.338;25.502;2023-04-01T13:42:23;2.17;;;1.50;;
2267;SDS011;11052;43.338;25.502;2023-04-01T13:44:55;0.80;;;0.60;;
2267;SDS011;11052;43.338;25.502;2023-04-01T13:47:36;1.50;;;1.10;;
2267;SDS011;11052;43.338;25.502;2023-04-01T13:50:25;2.50;;;1.47;;
2267;SDS011;11052;43.338;25.502;2023-04-01T13:56:15;1.53;;;0.90;;
2267;SDS011;11052;43.338;25.502;2023-04-01T14:01:49;1.90;;;1.03;;
2267;SDS011;11052;43.338;25.502;2023-04-01T14:07:31;2.10;;;1.47;;
2267;SDS011;11052;43.338;25.502;2023-04-01T14:10:18;1.53;;;1.37;;
2267;SDS011;11052;43.338;25.502;2023-04-01T14:12:50;1.50;;;1.40;;
2267;SDS011;11052;43.338;25.502;2023-04-01T14:15:35;3.37;;;1.30;;
2267;SDS011;11052;43.338;25.502;2023-04-01T14:18:25;5.03;;;1.57;;
2267;SDS011;11052;43.338;25.502;2023-04-01T14:21:21;6.63;;;2.30;;
2267;SDS011;11052;43.338;25.502;2023-04-01T14:24:09;3.00;;;1.90;;
2267;SDS011;11052;43.338;25.502;2023-04-01T14:27:01;2.23;;;1.40;;
2267;SDS011;11052;43.338;25.502;2023-04-01T14:29:48;3.53;;;1.33;;
2267;SDS011;11052;43.338;25.502;2023-04-01T14:32:30;1.67;;;1.13;;
2267;SDS011;11052;43.338;25.502;2023-04-01T14:35:12;1.57;;;1.27;;
2267;SDS011;11052;43.338;25.502;2023-04-01T14:37:58;2.03;;;1.30;;
2267;SDS011;11052;43.338;25.502;2023-04-01T14:40:49;1.43;;;1.13;;
2267;SDS011;11052;43.338;25.502;2023-04-01T14:43:28;1.40;;;1.30;;
2267;SDS011;11052;43.338;25.502;2023-04-01T14:46:14;2.60;;;2.10;;
2267;SDS011;11052;43.338;25.502;2023-04-01T14:48:56;2.83;;;1.70;;
2267;SDS011;11052;43.338;25.502;2023-04-01T14:51:28;2.93;;;2.57;;
2267;SDS011;11052;43.338;25.502;2023-04-01T14:54:08;2.30;;;2.17;;
2267;SDS011;11052;43.338;25.502;2023-04-01T14:56:48;8.53;;;2.13;;
2267;SDS011;11052;43.338;25.502;2023-04-01T14:59:25;1.20;;;0.93;;
2267;SDS011;11052;43.338;25.502;2023-04-01T15:01:55;2.17;;;1.23;;
2267;SDS011;11052;43.338;25.502;2023-04-01T15:04:42;1.67;;;1.57;;
2267;SDS011;11052;43.338;25.502;2023-04-01T15:07:20;13.07;;;2.40;;
2267;SDS011;11052;43.338;25.502;2023-04-01T15:10:02;3.13;;;1.27;;
2267;SDS011;11052;43.338;25.502;2023-04-01T15:12:40;1.40;;;1.00;;
2267;SDS011;11052;43.338;25.502;2023-04-01T15:15:20;12.47;;;2.40;;
2267;SDS011;11052;43.338;25.502;2023-04-01T15:17:58;1.10;;;0.90;;
2267;SDS011;11052;43.338;25.502;2023-04-01T15:20:47;1.50;;;1.17;;
2267;SDS011;11052;43.338;25.502;2023-04-01T15:23:27;2.50;;;1.33;;
2267;SDS011;11052;43.338;25.502;2023-04-01T15:29:23;1.10;;;0.70;;
2267;SDS011;11052;43.338;25.502;2023-04-01T15:32:13;1.67;;;1.53;;
2267;SDS011;11052;43.338;25.502;2023-04-01T15:34:45;1.03;;;0.93;;
2267;SDS011;11052;43.338;25.502;2023-04-01T15:37:21;2.43;;;1.77;;
2267;SDS011;11052;43.338;25.502;2023-04-01T15:39:57;2.07;;;1.73;;
2267;SDS011;11052;43.338;25.502;2023-04-01T15:42:44;1.47;;;1.37;;
2267;SDS011;11052;43.338;25.502;2023-04-01T15:48:17;1.10;;;1.00;;
2267;SDS011;11052;43.338;25.502;2023-04-01T15:54:05;1.80;;;1.33;;
2267;SDS011;11052;43.338;25.502;2023-04-01T15:56:50;2.03;;;1.83;;
2267;SDS011;11052;43.338;25.502;2023-04-01T15:59:27;2.90;;;1.83;;
2267;SDS011;11052;43.338;25.502;2023-04-01T16:02:15;2.07;;;1.70;;
2267;SDS011;11052;43.338;25.502;2023-04-01T16:04:49;4.07;;;2.23;;
2267;SDS011;11052;43.338;25.502;2023-04-01T16:07:25;2.30;;;1.27;;
2267;SDS011;11052;43.338;25.502;2023-04-01T16:10:31;2.70;;;0.87;;
2267;SDS011;11052;43.338;25.502;2023-04-01T16:13:18;3.07;;;2.10;;
2267;SDS011;11052;43.338;25.502;2023-04-01T16:15:57;8.10;;;1.50;;
2267;SDS011;11052;43.338;25.502;2023-04-01T16:18:36;5.10;;;2.50;;
2267;SDS011;11052;43.338;25.502;2023-04-01T16:21:21;1.63;;;1.40;;
2267;SDS011;11052;43.338;25.502;2023-04-01T16:24:03;1.37;;;1.27;;
2267;SDS011;11052;43.338;25.502;2023-04-01T16:26:43;1.20;;;1.10;;
2267;SDS011;11052;43.338;25.502;2023-04-01T16:29:19;4.67;;;1.70;;
2267;SDS011;11052;43.338;25.502;2023-04-01T16:31:55;1.50;;;1.00;;
2267;SDS011;11052;43.338;25.502;2023-04-01T16:34:28;1.60;;;1.30;;
2267;SDS011;11052;43.338;25.502;2023-04-01T16:37:03;1.90;;;1.60;;
2267;SDS011;11052;43.338;25.502;2023-04-01T16:39:41;3.40;;;2.13;;
2267;SDS011;11052;43.338;25.502;2023-04-01T16:42:28;4.33;;;2.80;;
2267;SDS011;11052;43.338;25.502;2023-04-01T16:45:15;1.93;;;1.83;;
2267;SDS011;11052;43.338;25.502;2023-04-01T16:47:47;2.50;;;2.30;;
2267;SDS011;11052;43.338;25.502;2023-04-01T16:50:18;2.40;;;2.30;;
2267;SDS011;11052;43.338;25.502;2023-04-01T16:52:53;4.20;;;2.63;;
2267;SDS011;11052;43.338;25.502;2023-04-01T16:55:33;3.10;;;2.90;;
2267;SDS011;11052;43.338;25.502;2023-04-01T16:58:09;2.30;;;2.07;;
2267;SDS011;11052;43.338;25.502;2023-04-01T17:00:44;2.60;;;2.40;;
2267;SDS011;11052;43.338;25.502;2023-04-01T17:03:16;2.20;;;2.00;;
2267;SDS011;11052;43.338;25.502;2023-04-01T17:05:53;3.50;;;3.03;;
2267;SDS011;11052;43.338;25.502;2023-04-01T17:08:36;2.87;;;2.63;;